createdAt,value
2023-10-10T00:00:55.443Z,0.00
2023-10-10T00:01:55.417Z,0.00
2023-10-10T00:02:55.433Z,0.00
2023-10-10T00:03:55.405Z,0.00
2023-10-10T00:04:55.377Z,0.00
2023-10-10T00:05:55.349Z,0.00
2023-10-10T00:06:55.355Z,0.00
2023-10-10T00:07:55.370Z,0.00
2023-10-10T00:08:55.315Z,0.00
2023-10-10T00:09:55.304Z,0.00
2023-10-10T00:10:55.308Z,0.00
2023-10-10T00:11:55.289Z,0.00
2023-10-10T00:12:56.364Z,0.00
2023-10-10T00:13:55.287Z,0.00
2023-10-10T00:14:55.242Z,0.00
2023-10-10T00:15:55.258Z,0.00
2023-10-10T00:16:55.451Z,0.00
2023-10-10T00:17:55.235Z,0.00
2023-10-10T00:18:55.213Z,0.00
2023-10-10T00:19:55.353Z,0.00
2023-10-10T00:20:55.185Z,0.00
2023-10-10T00:21:55.166Z,0.00
2023-10-10T00:22:55.179Z,0.00
2023-10-10T00:23:55.187Z,0.00
2023-10-10T00:24:55.152Z,0.00
2023-10-10T00:25:55.182Z,0.00
2023-10-10T00:26:55.113Z,0.00
2023-10-10T00:27:55.136Z,0.00
2023-10-10T00:28:55.250Z,0.00
2023-10-10T00:29:55.096Z,0.00
2023-10-10T00:30:56.107Z,0.00
2023-10-10T00:31:55.102Z,0.00
2023-10-10T00:32:55.076Z,0.00
2023-10-10T00:33:56.060Z,0.00
2023-10-10T00:34:55.092Z,0.00
2023-10-10T00:35:55.038Z,0.00
2023-10-10T00:36:55.046Z,0.00
2023-10-10T00:37:55.033Z,0.00
2023-10-10T00:38:54.983Z,0.00
2023-10-10T00:39:54.997Z,0.00
2023-10-10T00:40:55.026Z,0.00
2023-10-10T00:41:54.986Z,0.00
2023-10-10T00:42:54.946Z,0.00
2023-10-10T00:43:55.100Z,0.00
2023-10-10T00:44:54.941Z,0.00
2023-10-10T00:45:54.919Z,0.00
2023-10-10T00:46:54.982Z,0.00
2023-10-10T00:47:54.992Z,0.00
2023-10-10T00:48:54.880Z,0.00
2023-10-10T00:49:54.962Z,0.00
2023-10-10T00:50:54.860Z,0.00
2023-10-10T00:51:54.879Z,0.00
2023-10-10T00:52:54.983Z,0.00
2023-10-10T00:53:54.889Z,0.00
2023-10-10T00:54:54.842Z,0.00
2023-10-10T00:55:54.937Z,0.00
2023-10-10T00:56:55.886Z,0.00
2023-10-10T00:57:54.900Z,0.00
2023-10-10T00:58:54.856Z,0.00
2023-10-10T00:59:54.767Z,0.00
2023-10-10T01:00:54.777Z,0.00
2023-10-10T01:01:54.776Z,0.00
2023-10-10T01:02:55.521Z,0.00
2023-10-10T01:03:54.828Z,0.00
2023-10-10T01:04:54.877Z,0.00
2023-10-10T01:05:54.716Z,0.00
2023-10-10T01:06:54.756Z,0.00
2023-10-10T01:07:54.716Z,0.00
2023-10-10T01:08:54.682Z,0.00
2023-10-10T01:09:54.835Z,0.00
2023-10-10T01:10:54.712Z,0.00
2023-10-10T01:11:54.640Z,0.00
2023-10-10T01:12:54.619Z,0.00
2023-10-10T01:13:54.695Z,0.00
2023-10-10T01:14:54.744Z,0.00
2023-10-10T01:15:54.592Z,0.00
2023-10-10T01:16:55.746Z,0.00
2023-10-10T01:17:54.630Z,0.00
2023-10-10T01:18:54.558Z,0.00
2023-10-10T01:19:54.618Z,0.00
2023-10-10T01:20:54.545Z,0.00
2023-10-10T01:21:54.521Z,0.00
2023-10-10T01:22:54.530Z,0.00
2023-10-10T01:23:54.499Z,0.00
2023-10-10T01:24:54.480Z,0.00
2023-10-10T01:25:54.528Z,0.00
2023-10-10T01:26:55.342Z,0.00
2023-10-10T01:27:54.448Z,0.00
2023-10-10T01:28:54.472Z,0.00
2023-10-10T01:29:54.436Z,0.00
2023-10-10T01:30:54.500Z,0.00
2023-10-10T01:31:54.563Z,0.00
2023-10-10T01:32:54.450Z,0.00
2023-10-10T01:33:54.387Z,0.00
2023-10-10T01:34:54.420Z,0.00
2023-10-10T01:35:54.362Z,0.00
2023-10-10T01:36:54.362Z,0.00
2023-10-10T01:37:54.392Z,0.00
2023-10-10T01:38:54.345Z,0.00
2023-10-10T01:39:54.329Z,0.00
2023-10-10T01:40:54.467Z,0.00
2023-10-10T01:41:54.317Z,0.00
2023-10-10T01:42:54.331Z,0.00
2023-10-10T01:43:54.463Z,0.00
2023-10-10T01:44:54.325Z,0.00
2023-10-10T01:45:54.260Z,0.00
2023-10-10T01:46:55.302Z,0.00
2023-10-10T01:47:54.277Z,0.00
2023-10-10T01:48:54.235Z,0.00
2023-10-10T01:49:54.336Z,0.00
2023-10-10T01:50:54.239Z,0.00
2023-10-10T01:51:54.209Z,0.00
2023-10-10T01:52:54.186Z,0.00
2023-10-10T01:53:54.174Z,0.00
2023-10-10T01:54:54.191Z,0.00
2023-10-10T01:55:54.219Z,0.00
2023-10-10T01:56:54.127Z,0.00
2023-10-10T01:57:54.120Z,0.00
2023-10-10T01:58:55.244Z,0.00
2023-10-10T01:59:54.203Z,0.00
2023-10-10T02:00:54.087Z,0.00
2023-10-10T02:01:55.257Z,0.00
2023-10-10T02:02:54.351Z,0.00
2023-10-10T02:04:01.910Z,0.00
2023-10-10T02:04:54.035Z,0.00
2023-10-10T02:05:54.027Z,0.00
2023-10-10T02:06:54.013Z,0.00
2023-10-10T02:07:53.996Z,0.00
2023-10-10T02:08:54.092Z,0.00
2023-10-10T02:09:53.988Z,0.00
2023-10-10T02:10:53.967Z,0.00
2023-10-10T02:11:53.985Z,0.00
2023-10-10T02:12:53.965Z,0.00
2023-10-10T02:13:53.939Z,0.00
2023-10-10T02:14:53.926Z,0.00
2023-10-10T02:15:53.935Z,0.00
2023-10-10T02:16:53.900Z,0.00
2023-10-10T02:17:53.980Z,0.00
2023-10-10T02:18:53.884Z,0.00
2023-10-10T02:19:53.987Z,0.00
2023-10-10T02:20:53.892Z,0.00
2023-10-10T02:21:54.846Z,0.00
2023-10-10T02:22:53.837Z,0.00
2023-10-10T02:23:53.858Z,0.00
2023-10-10T02:24:53.816Z,0.00
2023-10-10T02:25:53.809Z,0.00
2023-10-10T02:26:53.794Z,0.00
2023-10-10T02:27:53.782Z,0.00
2023-10-10T02:28:53.784Z,0.00
2023-10-10T02:29:53.773Z,0.00
2023-10-10T02:30:54.170Z,0.00
2023-10-10T02:31:53.758Z,0.00
2023-10-10T02:32:53.752Z,0.00
2023-10-10T02:33:53.723Z,0.00
2023-10-10T02:34:53.727Z,0.00
2023-10-10T02:35:53.740Z,0.00
2023-10-10T02:36:53.682Z,0.00
2023-10-10T02:37:53.687Z,0.00
2023-10-10T02:38:53.663Z,0.00
2023-10-10T02:39:53.648Z,0.00
2023-10-10T02:40:53.638Z,0.00
2023-10-10T02:41:54.636Z,0.00
2023-10-10T02:42:53.617Z,0.00
2023-10-10T02:43:53.617Z,0.00
2023-10-10T02:44:53.611Z,0.00
2023-10-10T02:45:53.583Z,0.00
2023-10-10T02:46:54.279Z,0.00
2023-10-10T02:47:53.667Z,0.00
2023-10-10T02:48:53.553Z,0.00
2023-10-10T02:49:53.562Z,0.00
2023-10-10T02:50:53.527Z,0.00
2023-10-10T02:51:53.552Z,0.00
2023-10-10T02:52:53.579Z,0.00
2023-10-10T02:53:53.496Z,0.00
2023-10-10T02:54:53.482Z,0.00
2023-10-10T02:55:53.484Z,0.00
2023-10-10T02:56:53.483Z,0.00
2023-10-10T02:57:53.452Z,0.00
2023-10-10T02:58:53.469Z,0.00
2023-10-10T02:59:53.461Z,0.00
2023-10-10T03:00:53.424Z,0.00
2023-10-10T03:01:53.477Z,0.00
2023-10-10T03:02:53.537Z,0.00
2023-10-10T03:03:53.517Z,0.00
2023-10-10T03:04:53.376Z,0.00
2023-10-10T03:05:54.392Z,0.00
2023-10-10T03:06:53.365Z,0.00
2023-10-10T03:07:53.741Z,0.00
2023-10-10T03:08:53.337Z,0.00
2023-10-10T03:09:53.340Z,0.00
2023-10-10T03:10:53.358Z,0.00
2023-10-10T03:11:53.352Z,0.00
2023-10-10T03:12:53.332Z,0.00
2023-10-10T03:13:53.278Z,0.00
2023-10-10T03:14:53.277Z,0.00
2023-10-10T03:15:53.346Z,0.00
2023-10-10T03:16:53.268Z,0.00
2023-10-10T03:17:53.277Z,0.00
2023-10-10T03:18:53.249Z,0.00
2023-10-10T03:19:53.202Z,0.00
2023-10-10T03:20:54.217Z,0.00
2023-10-10T03:21:53.183Z,0.00
2023-10-10T03:22:53.171Z,0.00
2023-10-10T03:23:53.195Z,0.00
2023-10-10T03:24:53.172Z,0.00
2023-10-10T03:25:53.159Z,0.00
2023-10-10T03:26:53.145Z,0.00
2023-10-10T03:27:53.132Z,0.00
2023-10-10T03:28:53.118Z,0.00
2023-10-10T03:29:53.119Z,0.00
2023-10-10T03:30:53.097Z,0.00
2023-10-10T03:31:53.145Z,0.00
2023-10-10T03:32:53.143Z,0.00
2023-10-10T03:33:53.049Z,0.00
2023-10-10T03:34:53.067Z,0.00
2023-10-10T03:35:53.051Z,0.00
2023-10-10T03:36:53.032Z,0.00
2023-10-10T03:37:53.011Z,0.00
2023-10-10T03:38:52.997Z,0.00
2023-10-10T03:39:53.000Z,0.00
2023-10-10T03:40:52.998Z,0.00
2023-10-10T03:41:52.958Z,0.00
2023-10-10T03:42:52.947Z,0.00
2023-10-10T03:43:52.947Z,0.00
2023-10-10T03:44:52.929Z,0.00
2023-10-10T03:45:52.973Z,0.00
2023-10-10T03:46:52.914Z,0.00
2023-10-10T03:47:52.930Z,0.00
2023-10-10T03:48:52.885Z,0.00
2023-10-10T03:49:52.887Z,0.00
2023-10-10T03:50:52.871Z,0.00
2023-10-10T03:51:52.877Z,0.00
2023-10-10T03:52:52.843Z,0.00
2023-10-10T03:53:52.845Z,0.00
2023-10-10T03:54:52.815Z,0.00
2023-10-10T03:55:52.855Z,0.00
2023-10-10T03:56:52.838Z,0.00
2023-10-10T03:57:52.810Z,0.00
2023-10-10T03:58:52.856Z,0.00
2023-10-10T03:59:52.926Z,0.00
2023-10-10T04:00:52.826Z,0.00
2023-10-10T04:01:52.788Z,0.00
2023-10-10T04:02:52.854Z,0.00
2023-10-10T04:03:52.761Z,0.00
2023-10-10T04:04:52.736Z,0.00
2023-10-10T04:05:52.734Z,0.00
2023-10-10T04:06:52.693Z,0.00
2023-10-10T04:07:52.671Z,0.00
2023-10-10T04:08:52.683Z,0.00
2023-10-10T04:09:52.718Z,0.00
2023-10-10T04:10:52.635Z,0.00
2023-10-10T04:11:52.665Z,0.00
2023-10-10T04:12:52.642Z,0.00
2023-10-10T04:13:52.622Z,0.00
2023-10-10T04:14:52.614Z,0.00
2023-10-10T04:15:52.623Z,0.00
2023-10-10T04:16:52.619Z,0.00
2023-10-10T04:17:52.677Z,0.00
2023-10-10T04:18:52.572Z,0.00
2023-10-10T04:19:52.581Z,0.00
2023-10-10T04:20:52.533Z,0.00
2023-10-10T04:21:52.520Z,0.00
2023-10-10T04:22:52.513Z,0.00
2023-10-10T04:23:52.508Z,0.00
2023-10-10T04:24:52.483Z,0.00
2023-10-10T04:25:52.512Z,0.00
2023-10-10T04:26:52.464Z,0.00
2023-10-10T04:27:52.467Z,0.00
2023-10-10T04:28:52.487Z,0.00
2023-10-10T04:29:52.442Z,0.00
2023-10-10T04:30:52.422Z,0.00
2023-10-10T04:31:52.435Z,0.00
2023-10-10T04:32:52.460Z,0.00
2023-10-10T04:33:52.386Z,0.00
2023-10-10T04:34:52.388Z,0.00
2023-10-10T04:35:52.394Z,0.00
2023-10-10T04:36:52.364Z,0.00
2023-10-10T04:37:52.373Z,0.00
2023-10-10T04:38:52.322Z,0.00
2023-10-10T04:39:52.334Z,0.00
2023-10-10T04:40:52.320Z,0.00
2023-10-10T04:41:52.320Z,0.00
2023-10-10T04:42:52.332Z,0.00
2023-10-10T04:43:54.670Z,0.00
2023-10-10T04:44:52.287Z,0.00
2023-10-10T04:45:52.306Z,0.00
2023-10-10T04:46:53.253Z,0.00
2023-10-10T04:47:52.324Z,0.00
2023-10-10T04:48:52.226Z,0.00
2023-10-10T04:49:52.202Z,0.00
2023-10-10T04:50:52.245Z,0.00
2023-10-10T04:51:52.182Z,0.00
2023-10-10T04:52:52.181Z,0.00
2023-10-10T04:53:52.175Z,0.00
2023-10-10T04:54:52.159Z,0.00
2023-10-10T04:55:52.175Z,0.00
2023-10-10T04:56:52.131Z,0.00
2023-10-10T04:57:52.129Z,0.00
2023-10-10T04:58:52.127Z,0.00
2023-10-10T04:59:52.138Z,0.00
2023-10-10T05:00:52.114Z,0.00
2023-10-10T05:01:52.128Z,0.00
2023-10-10T05:02:52.149Z,0.00
2023-10-10T05:03:52.100Z,0.00
2023-10-10T05:04:52.049Z,0.00
2023-10-10T05:05:52.067Z,0.00
2023-10-10T05:06:52.058Z,0.00
2023-10-10T05:07:52.059Z,0.00
2023-10-10T05:08:52.038Z,0.00
2023-10-10T05:09:51.977Z,0.00
2023-10-10T05:10:52.026Z,0.00
2023-10-10T05:11:51.964Z,0.00
2023-10-10T05:12:52.007Z,0.00
2023-10-10T05:13:51.951Z,0.00
2023-10-10T05:14:51.938Z,0.00
2023-10-10T05:15:52.000Z,0.00
2023-10-10T05:16:51.941Z,0.00
2023-10-10T05:17:51.965Z,4.00
2023-10-10T05:18:51.903Z,0.00
2023-10-10T05:19:51.884Z,4.00
2023-10-10T05:20:51.882Z,0.00
2023-10-10T05:21:51.883Z,0.00
2023-10-10T05:22:51.865Z,0.00
2023-10-10T05:23:51.857Z,4.00
2023-10-10T05:24:51.814Z,4.00
2023-10-10T05:25:51.805Z,4.00
2023-10-10T05:26:51.796Z,4.00
2023-10-10T05:27:51.801Z,8.00
2023-10-10T05:28:51.814Z,8.00
2023-10-10T05:29:51.769Z,8.00
2023-10-10T05:30:51.748Z,8.00
2023-10-10T05:31:51.753Z,8.00
2023-10-10T05:32:51.795Z,8.00
2023-10-10T05:33:51.727Z,8.00
2023-10-10T05:34:51.751Z,8.00
2023-10-10T05:35:51.700Z,8.00
2023-10-10T05:36:51.725Z,8.00
2023-10-10T05:37:51.667Z,12.00
2023-10-10T05:38:51.895Z,16.00
2023-10-10T05:39:51.662Z,16.00
2023-10-10T05:40:51.642Z,16.00
2023-10-10T05:41:51.663Z,16.00
2023-10-10T05:42:51.620Z,20.00
2023-10-10T05:43:51.630Z,16.00
2023-10-10T05:44:51.615Z,16.00
2023-10-10T05:45:51.655Z,16.00
2023-10-10T05:46:51.578Z,20.00
2023-10-10T05:47:51.643Z,20.00
2023-10-10T05:48:51.560Z,20.00
2023-10-10T05:49:51.556Z,20.00
2023-10-10T05:50:51.560Z,20.00
2023-10-10T05:51:51.557Z,16.00
2023-10-10T05:52:51.526Z,16.00
2023-10-10T05:53:51.543Z,16.00
2023-10-10T05:54:51.488Z,20.00
2023-10-10T05:55:51.585Z,20.00
2023-10-10T05:56:51.527Z,20.00
2023-10-10T05:57:51.462Z,24.00
2023-10-10T05:58:53.234Z,28.00
2023-10-10T05:59:51.447Z,32.00
2023-10-10T06:00:51.504Z,28.00
2023-10-10T06:01:51.444Z,32.00
2023-10-10T06:02:51.565Z,36.00
2023-10-10T06:03:52.578Z,32.00
2023-10-10T06:04:51.389Z,32.00
2023-10-10T06:05:51.422Z,28.00
2023-10-10T06:06:51.369Z,24.00
2023-10-10T06:07:51.383Z,36.00
2023-10-10T06:08:51.346Z,40.00
2023-10-10T06:09:51.321Z,36.00
2023-10-10T06:10:51.326Z,36.00
2023-10-10T06:11:51.341Z,32.00
2023-10-10T06:12:51.321Z,32.00
2023-10-10T06:13:51.478Z,32.00
2023-10-10T06:14:51.268Z,40.00
2023-10-10T06:15:51.378Z,48.00
2023-10-10T06:16:51.288Z,52.00
2023-10-10T06:17:51.326Z,56.00
2023-10-10T06:18:51.284Z,56.00
2023-10-10T06:19:51.238Z,56.00
2023-10-10T06:21:08.862Z,60.00
2023-10-10T06:21:52.198Z,56.00
2023-10-10T06:22:51.200Z,52.00
2023-10-10T06:23:51.262Z,44.00
2023-10-10T06:24:51.173Z,48.00
2023-10-10T06:25:51.156Z,56.00
2023-10-10T06:26:51.138Z,60.00
2023-10-10T06:27:51.137Z,68.00
2023-10-10T06:28:51.225Z,68.00
2023-10-10T06:29:51.112Z,56.00
2023-10-10T06:30:51.124Z,60.00
2023-10-10T06:31:51.101Z,64.00
2023-10-10T06:32:51.223Z,80.00
2023-10-10T06:33:51.264Z,88.00
2023-10-10T06:34:51.165Z,104.00
2023-10-10T06:35:51.094Z,104.00
2023-10-10T06:36:51.086Z,92.00
2023-10-10T06:37:51.039Z,80.00
2023-10-10T06:38:58.612Z,80.00
2023-10-10T06:39:51.023Z,76.00
2023-10-10T06:40:50.985Z,72.00
2023-10-10T06:41:51.047Z,76.00
2023-10-10T06:42:50.989Z,72.00
2023-10-10T06:43:50.952Z,80.00
2023-10-10T06:44:51.009Z,84.00
2023-10-10T06:45:50.966Z,96.00
2023-10-10T06:46:50.940Z,112.00
2023-10-10T06:47:50.994Z,108.00
2023-10-10T06:48:50.914Z,120.00
2023-10-10T06:49:50.926Z,124.00
2023-10-10T06:50:51.070Z,120.00
2023-10-10T06:51:50.909Z,132.00
2023-10-10T06:52:50.867Z,132.00
2023-10-10T06:53:50.863Z,136.00
2023-10-10T06:54:50.898Z,148.00
2023-10-10T06:55:50.898Z,172.00
2023-10-10T06:56:50.820Z,180.00
2023-10-10T06:57:50.848Z,184.00
2023-10-10T06:58:50.840Z,184.00
2023-10-10T06:59:51.777Z,184.00
2023-10-10T07:00:50.795Z,180.00
2023-10-10T07:01:50.988Z,172.00
2023-10-10T07:02:50.875Z,164.00
2023-10-10T07:03:50.828Z,164.00
2023-10-10T07:04:50.727Z,156.00
2023-10-10T07:05:50.782Z,148.00
2023-10-10T07:06:50.724Z,148.00
2023-10-10T07:07:50.729Z,152.00
2023-10-10T07:08:50.694Z,156.00
2023-10-10T07:09:50.669Z,156.00
2023-10-10T07:10:50.665Z,148.00
2023-10-10T07:11:50.680Z,148.00
2023-10-10T07:12:50.637Z,148.00
2023-10-10T07:13:50.674Z,152.00
2023-10-10T07:14:50.777Z,156.00
2023-10-10T07:15:50.652Z,156.00
2023-10-10T07:16:50.643Z,168.00
2023-10-10T07:17:50.715Z,172.00
2023-10-10T07:18:50.586Z,176.00
2023-10-10T07:19:50.590Z,180.00
2023-10-10T07:20:50.577Z,180.00
2023-10-10T07:21:50.557Z,184.00
2023-10-10T07:22:50.530Z,188.00
2023-10-10T07:23:50.543Z,188.00
2023-10-10T07:24:50.510Z,196.00
2023-10-10T07:25:50.503Z,192.00
2023-10-10T07:26:50.544Z,204.00
2023-10-10T07:27:50.500Z,204.00
2023-10-10T07:28:50.536Z,200.00
2023-10-10T07:29:50.458Z,204.00
2023-10-10T07:30:50.464Z,208.00
2023-10-10T07:31:50.460Z,192.00
2023-10-10T07:32:50.834Z,184.00
2023-10-10T07:33:50.426Z,180.00
2023-10-10T07:34:50.434Z,184.00
2023-10-10T07:35:50.431Z,184.00
2023-10-10T07:36:50.413Z,180.00
2023-10-10T07:37:50.367Z,188.00
2023-10-10T07:38:50.365Z,204.00
2023-10-10T07:39:50.395Z,200.00
2023-10-10T07:40:50.321Z,196.00
2023-10-10T07:41:50.328Z,208.00
2023-10-10T07:42:50.310Z,224.00
2023-10-10T07:43:50.331Z,248.00
2023-10-10T07:44:50.305Z,248.00
2023-10-10T07:45:50.288Z,248.00
2023-10-10T07:46:50.285Z,268.00
2023-10-10T07:47:50.457Z,276.00
2023-10-10T07:48:50.257Z,256.00
2023-10-10T07:49:50.238Z,252.00
2023-10-10T07:50:50.344Z,256.00
2023-10-10T07:51:50.205Z,252.00
2023-10-10T07:52:50.308Z,244.00
2023-10-10T07:53:50.267Z,232.00
2023-10-10T07:54:50.172Z,220.00
2023-10-10T07:55:50.181Z,208.00
2023-10-10T07:56:50.185Z,208.00
2023-10-10T07:57:50.200Z,216.00
2023-10-10T07:58:53.279Z,224.00
2023-10-10T07:59:50.140Z,220.00
2023-10-10T08:00:50.118Z,224.00
2023-10-10T08:01:50.142Z,236.00
2023-10-10T08:02:50.150Z,240.00
2023-10-10T08:03:50.177Z,260.00
2023-10-10T08:04:50.091Z,284.00
2023-10-10T08:05:50.142Z,276.00
2023-10-10T08:06:50.105Z,268.00
2023-10-10T08:07:50.031Z,268.00
2023-10-10T08:08:50.151Z,280.00
2023-10-10T08:09:50.025Z,288.00
2023-10-10T08:10:50.224Z,268.00
2023-10-10T08:11:50.077Z,280.00
2023-10-10T08:12:50.092Z,308.00
2023-10-10T08:13:50.157Z,308.00
2023-10-10T08:14:50.044Z,288.00
2023-10-10T08:15:49.964Z,272.00
2023-10-10T08:16:49.995Z,272.00
2023-10-10T08:17:50.009Z,280.00
2023-10-10T08:18:49.907Z,292.00
2023-10-10T08:19:49.905Z,300.00
2023-10-10T08:20:49.930Z,308.00
2023-10-10T08:21:49.908Z,328.00
2023-10-10T08:22:49.877Z,332.00
2023-10-10T08:23:49.894Z,328.00
2023-10-10T08:24:49.850Z,332.00
2023-10-10T08:25:49.825Z,348.00
2023-10-10T08:26:49.872Z,360.00
2023-10-10T08:27:49.841Z,372.00
2023-10-10T08:28:49.808Z,380.00
2023-10-10T08:29:49.814Z,392.00
2023-10-10T08:30:49.829Z,388.00
2023-10-10T08:31:49.774Z,376.00
2023-10-10T08:32:49.872Z,368.00
2023-10-10T08:33:49.808Z,336.00
2023-10-10T08:34:49.744Z,328.00
2023-10-10T08:35:51.519Z,340.00
2023-10-10T08:36:49.700Z,352.00
2023-10-10T08:37:49.704Z,360.00
2023-10-10T08:38:49.739Z,356.00
2023-10-10T08:39:49.720Z,352.00
2023-10-10T08:40:49.667Z,344.00
2023-10-10T08:41:49.690Z,328.00
2023-10-10T08:42:49.633Z,324.00
2023-10-10T08:43:49.664Z,348.00
2023-10-10T08:44:49.654Z,352.00
2023-10-10T08:45:49.636Z,356.00
2023-10-10T08:46:49.791Z,376.00
2023-10-10T08:47:49.813Z,392.00
2023-10-10T08:48:49.573Z,424.00
2023-10-10T08:49:49.632Z,436.00
2023-10-10T08:50:49.586Z,432.00
2023-10-10T08:51:49.615Z,416.00
2023-10-10T08:52:49.547Z,384.00
2023-10-10T08:53:49.597Z,372.00
2023-10-10T08:54:49.531Z,388.00
2023-10-10T08:55:49.517Z,420.00
2023-10-10T08:56:49.542Z,428.00
2023-10-10T08:57:49.472Z,412.00
2023-10-10T08:58:49.472Z,396.00
2023-10-10T08:59:49.563Z,388.00
2023-10-10T09:00:50.118Z,360.00
2023-10-10T09:01:49.448Z,324.00
2023-10-10T09:02:49.607Z,300.00
2023-10-10T09:03:49.554Z,268.00
2023-10-10T09:04:49.420Z,232.00
2023-10-10T09:05:49.400Z,204.00
2023-10-10T09:06:49.367Z,204.00
2023-10-10T09:07:49.384Z,212.00
2023-10-10T09:08:49.425Z,228.00
2023-10-10T09:09:49.340Z,244.00
2023-10-10T09:10:49.524Z,284.00
2023-10-10T09:11:49.378Z,308.00
2023-10-10T09:12:49.304Z,292.00
2023-10-10T09:13:49.296Z,268.00
2023-10-10T09:14:49.355Z,256.00
2023-10-10T09:15:49.282Z,264.00
2023-10-10T09:16:49.327Z,308.00
2023-10-10T09:17:49.305Z,344.00
2023-10-10T09:18:49.237Z,388.00
2023-10-10T09:19:49.236Z,432.00
2023-10-10T09:20:49.419Z,444.00
2023-10-10T09:21:49.226Z,468.00
2023-10-10T09:22:49.206Z,484.00
2023-10-10T09:23:49.263Z,480.00
2023-10-10T09:24:49.182Z,448.00
2023-10-10T09:25:49.154Z,400.00
2023-10-10T09:26:49.220Z,388.00
2023-10-10T09:27:49.152Z,452.00
2023-10-10T09:28:49.149Z,420.00
2023-10-10T09:29:49.179Z,444.00
2023-10-10T09:30:49.152Z,436.00
2023-10-10T09:31:49.134Z,452.00
2023-10-10T09:32:49.187Z,480.00
2023-10-10T09:33:49.104Z,452.00
2023-10-10T09:34:49.057Z,472.00
2023-10-10T09:35:49.670Z,492.00
2023-10-10T09:36:49.051Z,536.00
2023-10-10T09:37:49.032Z,556.00
2023-10-10T09:38:49.142Z,520.00
2023-10-10T09:39:49.023Z,512.00
2023-10-10T09:40:48.994Z,596.00
2023-10-10T09:41:49.119Z,588.00
2023-10-10T09:42:48.980Z,516.00
2023-10-10T09:43:48.973Z,484.00
2023-10-10T09:44:49.180Z,552.00
2023-10-10T09:45:48.952Z,588.00
2023-10-10T09:46:48.963Z,600.00
2023-10-10T09:47:49.022Z,596.00
2023-10-10T09:48:48.910Z,564.00
2023-10-10T09:49:48.898Z,508.00
2023-10-10T09:50:48.970Z,504.00
2023-10-10T09:51:48.866Z,576.00
2023-10-10T09:52:48.879Z,540.00
2023-10-10T09:53:48.965Z,504.00
2023-10-10T09:54:48.842Z,460.00
2023-10-10T09:55:48.846Z,500.00
2023-10-10T09:56:48.926Z,476.00
2023-10-10T09:57:48.818Z,500.00
2023-10-10T09:58:48.831Z,480.00
2023-10-10T09:59:48.836Z,600.00
2023-10-10T10:00:48.769Z,432.00
2023-10-10T10:01:48.788Z,400.00
2023-10-10T10:02:48.946Z,420.00
2023-10-10T10:03:48.906Z,444.00
2023-10-10T10:04:48.761Z,548.00
2023-10-10T10:05:48.832Z,508.00
2023-10-10T10:07:06.092Z,396.00
2023-10-10T10:07:49.712Z,392.00
2023-10-10T10:08:48.757Z,372.00
2023-10-10T10:09:48.729Z,368.00
2023-10-10T10:10:48.692Z,372.00
2023-10-10T10:11:48.665Z,388.00
2023-10-10T10:12:48.648Z,376.00
2023-10-10T10:13:50.758Z,364.00
2023-10-10T10:14:49.655Z,320.00
2023-10-10T10:15:48.613Z,356.00
2023-10-10T10:16:48.626Z,368.00
2023-10-10T10:17:48.830Z,372.00
2023-10-10T10:18:48.630Z,392.00
2023-10-10T10:19:49.584Z,392.00
2023-10-10T10:20:48.944Z,396.00
2023-10-10T10:21:48.558Z,376.00
2023-10-10T10:22:48.546Z,376.00
2023-10-10T10:23:48.632Z,392.00
2023-10-10T10:24:48.516Z,396.00
2023-10-10T10:25:48.567Z,380.00
2023-10-10T10:26:48.522Z,368.00
2023-10-10T10:27:48.494Z,376.00
2023-10-10T10:28:48.525Z,544.00
2023-10-10T10:29:48.505Z,544.00
2023-10-10T10:30:48.456Z,532.00
2023-10-10T10:31:48.522Z,344.00
2023-10-10T10:32:48.557Z,336.00
2023-10-10T10:33:48.422Z,348.00
2023-10-10T10:34:48.488Z,324.00
2023-10-10T10:35:49.168Z,324.00
2023-10-10T10:36:48.487Z,452.00
2023-10-10T10:37:48.361Z,444.00
2023-10-10T10:38:48.420Z,340.00
2023-10-10T10:39:48.360Z,416.00
2023-10-10T10:40:48.365Z,480.00
2023-10-10T10:41:48.382Z,496.00
2023-10-10T10:42:48.363Z,512.00
2023-10-10T10:43:48.360Z,556.00
2023-10-10T10:44:48.492Z,584.00
2023-10-10T10:45:48.349Z,612.00
2023-10-10T10:46:48.282Z,652.00
2023-10-10T10:47:48.374Z,528.00
2023-10-10T10:48:48.275Z,528.00
2023-10-10T10:49:48.259Z,540.00
2023-10-10T10:50:48.297Z,496.00
2023-10-10T10:51:48.241Z,468.00
2023-10-10T10:52:48.224Z,492.00
2023-10-10T10:53:48.331Z,488.00
2023-10-10T10:54:48.187Z,496.00
2023-10-10T10:55:48.209Z,500.00
2023-10-10T10:56:52.110Z,496.00
2023-10-10T10:57:50.739Z,488.00
2023-10-10T10:58:48.182Z,472.00
2023-10-10T10:59:48.205Z,460.00
2023-10-10T11:00:48.153Z,440.00
2023-10-10T11:01:48.174Z,416.00
2023-10-10T11:02:48.175Z,392.00
2023-10-10T11:03:48.106Z,388.00
2023-10-10T11:04:48.131Z,352.00
2023-10-10T11:05:48.136Z,348.00
2023-10-10T11:06:48.075Z,352.00
2023-10-10T11:07:48.080Z,360.00
2023-10-10T11:08:57.207Z,372.00
2023-10-10T11:09:49.053Z,404.00
2023-10-10T11:10:48.003Z,428.00
2023-10-10T11:11:47.999Z,444.00
2023-10-10T11:12:47.980Z,468.00
2023-10-10T11:13:47.980Z,492.00
2023-10-10T11:14:48.458Z,540.00
2023-10-10T11:15:47.991Z,600.00
2023-10-10T11:16:48.273Z,472.00
2023-10-10T11:17:48.023Z,416.00
2023-10-10T11:18:47.963Z,396.00
2023-10-10T11:19:47.925Z,384.00
2023-10-10T11:20:47.968Z,376.00
2023-10-10T11:21:47.884Z,380.00
2023-10-10T11:22:47.922Z,488.00
2023-10-10T11:23:48.169Z,544.00
2023-10-10T11:24:47.869Z,448.00
2023-10-10T11:25:47.830Z,420.00
2023-10-10T11:26:47.877Z,408.00
2023-10-10T11:27:47.819Z,412.00
2023-10-10T11:28:47.815Z,460.00
2023-10-10T11:29:47.832Z,496.00
2023-10-10T11:30:47.793Z,484.00
2023-10-10T11:31:47.846Z,508.00
2023-10-10T11:32:48.602Z,544.00
2023-10-10T11:33:47.741Z,508.00
2023-10-10T11:34:47.731Z,512.00
2023-10-10T11:35:47.848Z,492.00
2023-10-10T11:36:47.724Z,464.00
2023-10-10T11:37:47.726Z,504.00
2023-10-10T11:38:47.735Z,504.00
2023-10-10T11:39:47.705Z,456.00
2023-10-10T11:40:47.661Z,516.00
2023-10-10T11:41:47.768Z,568.00
2023-10-10T11:42:47.679Z,564.00
2023-10-10T11:43:47.640Z,480.00
2023-10-10T11:44:47.697Z,468.00
2023-10-10T11:45:47.724Z,428.00
2023-10-10T11:46:47.644Z,420.00
2023-10-10T11:47:47.735Z,424.00
2023-10-10T11:48:47.608Z,420.00
2023-10-10T11:49:47.561Z,428.00
2023-10-10T11:50:47.595Z,432.00
2023-10-10T11:51:47.536Z,568.00
2023-10-10T11:52:47.543Z,500.00
2023-10-10T11:53:47.608Z,488.00
2023-10-10T11:54:47.518Z,476.00
2023-10-10T11:55:47.530Z,488.00
2023-10-10T11:56:47.643Z,580.00
2023-10-10T11:57:47.476Z,536.00
2023-10-10T11:58:47.462Z,584.00
2023-10-10T11:59:47.505Z,584.00
2023-10-10T12:00:47.453Z,448.00
2023-10-10T12:01:47.467Z,440.00
2023-10-10T12:02:47.485Z,452.00
2023-10-10T12:03:47.512Z,420.00
2023-10-10T12:04:47.414Z,408.00
2023-10-10T12:05:47.482Z,392.00
2023-10-10T12:06:47.487Z,428.00
2023-10-10T12:07:47.437Z,440.00
2023-10-10T12:08:47.518Z,412.00
2023-10-10T12:09:47.447Z,392.00
2023-10-10T12:10:47.410Z,404.00
2023-10-10T12:11:47.636Z,452.00
2023-10-10T12:12:47.481Z,404.00
2023-10-10T12:13:47.377Z,400.00
2023-10-10T12:14:47.392Z,388.00
2023-10-10T12:15:47.332Z,388.00
2023-10-10T12:16:47.324Z,372.00
2023-10-10T12:17:47.562Z,372.00
2023-10-10T12:18:47.291Z,380.00
2023-10-10T12:19:47.270Z,388.00
2023-10-10T12:20:47.302Z,392.00
2023-10-10T12:21:47.352Z,388.00
2023-10-10T12:22:47.272Z,392.00
2023-10-10T12:23:47.306Z,396.00
2023-10-10T12:24:47.224Z,400.00
2023-10-10T12:25:47.213Z,408.00
2023-10-10T12:26:47.207Z,396.00
2023-10-10T12:27:47.337Z,388.00
2023-10-10T12:28:47.194Z,384.00
2023-10-10T12:29:47.325Z,388.00
2023-10-10T12:30:47.171Z,408.00
2023-10-10T12:31:47.225Z,436.00
2023-10-10T12:32:47.201Z,384.00
2023-10-10T12:33:47.124Z,360.00
2023-10-10T12:34:47.381Z,360.00
2023-10-10T12:35:47.216Z,372.00
2023-10-10T12:36:47.124Z,372.00
2023-10-10T12:37:47.068Z,364.00
2023-10-10T12:38:47.093Z,356.00
2023-10-10T12:39:47.229Z,332.00
2023-10-10T12:40:47.167Z,324.00
2023-10-10T12:41:47.162Z,336.00
2023-10-10T12:42:47.078Z,336.00
2023-10-10T12:43:47.031Z,336.00
2023-10-10T12:44:47.125Z,340.00
2023-10-10T12:45:47.104Z,336.00
2023-10-10T12:46:47.030Z,320.00
2023-10-10T12:47:47.033Z,308.00
2023-10-10T12:48:46.966Z,308.00
2023-10-10T12:49:46.954Z,320.00
2023-10-10T12:50:46.959Z,328.00
2023-10-10T12:51:46.928Z,384.00